Terminal Aerodrome Forecast
Issued by NWS

Home | Current Version | Previous Version | Text Only | Print | Product List | Glossary On
Versions: 1 2 3 4 5 6 7 8 9 10 11 12 13 14 15 16 17 18 19 20 21 22 23 24 25 26 27 28 29 30 31 32 33 34 35 36 37
000
FTUS46 KPQR 252332
TAFONP
TAF
KONP 252332Z 2600/2624 30007KT P6SM SCT020 BKN045
     FM260300 VRB03KT P6SM SCT030
     FM260700 09003KT 1SM BR BKN002
     FM261800 VRB03KT 6SM BR BKN008
     FM262200 35005KT P6SM SCT015=

USA.gov is the U.S. government's official web portal to all federal, state and local government web resources and services.